sensor_id;sensor_type;location;lat;lon;timestamp;temperature;humidity
65396;HTU21D;52004;45.136;39.010;2022-07-29T00:00:06;22.49;65.18
65396;HTU21D;52004;45.136;39.010;2022-07-29T00:02:33;22.49;65.21
65396;HTU21D;52004;45.136;39.010;2022-07-29T00:04:59;22.48;65.24
65396;HTU21D;52004;45.136;39.010;2022-07-29T00:07:25;22.47;65.24
65396;HTU21D;52004;45.136;39.010;2022-07-29T00:09:51;22.44;65.24
65396;HTU21D;52004;45.136;39.010;2022-07-29T00:12:17;22.43;65.26
65396;HTU21D;52004;45.136;39.010;2022-07-29T00:14:43;22.41;65.31
65396;HTU21D;52004;45.136;39.010;2022-07-29T00:17:09;22.39;65.33
65396;HTU21D;52004;45.136;39.010;2022-07-29T00:19:35;22.36;65.37
65396;HTU21D;52004;45.136;39.010;2022-07-29T00:22:01;22.35;65.39
65396;HTU21D;52004;45.136;39.010;2022-07-29T00:24:27;22.34;65.44
65396;HTU21D;52004;45.136;39.010;2022-07-29T00:26:53;22.34;65.49
65396;HTU21D;52004;45.136;39.010;2022-07-29T00:29:19;22.29;65.50
65396;HTU21D;52004;45.136;39.010;2022-07-29T00:31:45;22.29;65.53
65396;HTU21D;52004;45.136;39.010;2022-07-29T00:34:11;22.28;65.56
65396;HTU21D;52004;45.136;39.010;2022-07-29T00:36:56;22.26;65.58
65396;HTU21D;52004;45.136;39.010;2022-07-29T00:39:22;22.23;65.57
65396;HTU21D;52004;45.136;39.010;2022-07-29T00:41:48;22.21;65.61
65396;HTU21D;52004;45.136;39.010;2022-07-29T00:44:14;22.18;65.64
65396;HTU21D;52004;45.136;39.010;2022-07-29T00:46:40;22.16;65.69
65396;HTU21D;52004;45.136;39.010;2022-07-29T00:49:06;22.12;65.74
65396;HTU21D;52004;45.136;39.010;2022-07-29T00:51:36;22.09;65.79
65396;HTU21D;52004;45.136;39.010;2022-07-29T00:54:03;22.07;65.84
65396;HTU21D;52004;45.136;39.010;2022-07-29T00:56:29;22.05;65.84
65396;HTU21D;52004;45.136;39.010;2022-07-29T00:58:56;22.02;65.88
65396;HTU21D;52004;45.136;39.010;2022-07-29T01:01:22;21.98;65.91
65396;HTU21D;52004;45.136;39.010;2022-07-29T01:03:49;21.96;65.96
65396;HTU21D;52004;45.136;39.010;2022-07-29T01:06:18;21.94;65.98
65396;HTU21D;52004;45.136;39.010;2022-07-29T01:08:45;21.91;66.01
65396;HTU21D;52004;45.136;39.010;2022-07-29T01:11:12;21.88;66.06
65396;HTU21D;52004;45.136;39.010;2022-07-29T01:13:38;21.84;66.09
65396;HTU21D;52004;45.136;39.010;2022-07-29T01:16:12;21.81;66.11
65396;HTU21D;52004;45.136;39.010;2022-07-29T01:18:41;21.78;66.18
65396;HTU21D;52004;45.136;39.010;2022-07-29T01:21:15;21.74;66.27
65396;HTU21D;52004;45.136;39.010;2022-07-29T01:31:41;21.62;66.47
65396;HTU21D;52004;45.136;39.010;2022-07-29T01:34:08;21.60;66.49
65396;HTU21D;52004;45.136;39.010;2022-07-29T01:36:43;21.55;66.49
65396;HTU21D;52004;45.136;39.010;2022-07-29T01:39:12;21.54;66.55
65396;HTU21D;52004;45.136;39.010;2022-07-29T01:44:30;21.50;66.64
65396;HTU21D;52004;45.136;39.010;2022-07-29T01:46:58;21.49;66.66
65396;HTU21D;52004;45.136;39.010;2022-07-29T01:49:25;21.49;66.75
65396;HTU21D;52004;45.136;39.010;2022-07-29T01:51:54;21.49;66.65
65396;HTU21D;52004;45.136;39.010;2022-07-29T01:56:48;21.48;66.67
65396;HTU21D;52004;45.136;39.010;2022-07-29T01:59:15;21.45;66.70
65396;HTU21D;52004;45.136;39.010;2022-07-29T02:01:41;21.44;66.73
65396;HTU21D;52004;45.136;39.010;2022-07-29T02:04:09;21.42;66.75
65396;HTU21D;52004;45.136;39.010;2022-07-29T02:06:36;21.38;66.79
65396;HTU21D;52004;45.136;39.010;2022-07-29T02:09:03;21.36;66.85
65396;HTU21D;52004;45.136;39.010;2022-07-29T02:11:31;21.35;66.88
65396;HTU21D;52004;45.136;39.010;2022-07-29T02:13:58;21.34;66.90
65396;HTU21D;52004;45.136;39.010;2022-07-29T02:16:25;21.32;66.89
65396;HTU21D;52004;45.136;39.010;2022-07-29T02:18:52;21.31;66.92
65396;HTU21D;52004;45.136;39.010;2022-07-29T02:21:19;21.31;66.93
65396;HTU21D;52004;45.136;39.010;2022-07-29T02:23:47;21.30;66.95
65396;HTU21D;52004;45.136;39.010;2022-07-29T02:26:13;21.31;66.98
65396;HTU21D;52004;45.136;39.010;2022-07-29T02:29:05;21.31;66.98
65396;HTU21D;52004;45.136;39.010;2022-07-29T02:31:33;21.31;67.04
65396;HTU21D;52004;45.136;39.010;2022-07-29T02:34:01;21.32;67.07
65396;HTU21D;52004;45.136;39.010;2022-07-29T02:36:27;21.33;67.11
65396;HTU21D;52004;45.136;39.010;2022-07-29T02:38:54;21.34;67.12
65396;HTU21D;52004;45.136;39.010;2022-07-29T02:41:28;21.35;67.15
65396;HTU21D;52004;45.136;39.010;2022-07-29T02:44:00;21.37;67.15
65396;HTU21D;52004;45.136;39.010;2022-07-29T02:46:33;21.40;67.20
65396;HTU21D;52004;45.136;39.010;2022-07-29T02:51:32;21.44;67.20
65396;HTU21D;52004;45.136;39.010;2022-07-29T02:53:59;21.46;67.28
65396;HTU21D;52004;45.136;39.010;2022-07-29T02:56:27;21.50;67.27
65396;HTU21D;52004;45.136;39.010;2022-07-29T02:58:54;21.53;67.28
65396;HTU21D;52004;45.136;39.010;2022-07-29T03:01:24;21.58;67.29
65396;HTU21D;52004;45.136;39.010;2022-07-29T03:03:53;21.62;67.27
65396;HTU21D;52004;45.136;39.010;2022-07-29T03:06:23;21.66;67.30
65396;HTU21D;52004;45.136;39.010;2022-07-29T03:08:50;21.70;67.30
65396;HTU21D;52004;45.136;39.010;2022-07-29T03:11:17;21.75;67.33
65396;HTU21D;52004;45.136;39.010;2022-07-29T03:13:43;21.79;67.35
65396;HTU21D;52004;45.136;39.010;2022-07-29T03:16:10;21.85;67.35
65396;HTU21D;52004;45.136;39.010;2022-07-29T03:18:36;21.90;67.35
65396;HTU21D;52004;45.136;39.010;2022-07-29T03:21:03;21.94;67.36
65396;HTU21D;52004;45.136;39.010;2022-07-29T03:23:29;22.01;67.36
65396;HTU21D;52004;45.136;39.010;2022-07-29T03:25:56;22.08;67.36
65396;HTU21D;52004;45.136;39.010;2022-07-29T03:28:22;22.16;67.38
65396;HTU21D;52004;45.136;39.010;2022-07-29T03:30:49;22.22;67.37
65396;HTU21D;52004;45.136;39.010;2022-07-29T03:33:15;22.29;67.39
65396;HTU21D;52004;45.136;39.010;2022-07-29T03:35:41;22.37;67.36
65396;HTU21D;52004;45.136;39.010;2022-07-29T03:38:07;22.44;67.35
65396;HTU21D;52004;45.136;39.010;2022-07-29T03:40:53;22.52;67.33
65396;HTU21D;52004;45.136;39.010;2022-07-29T03:43:19;22.62;67.30
65396;HTU21D;52004;45.136;39.010;2022-07-29T03:45:47;22.69;67.28
65396;HTU21D;52004;45.136;39.010;2022-07-29T03:48:15;22.78;67.25
65396;HTU21D;52004;45.136;39.010;2022-07-29T03:50:41;22.85;67.20
65396;HTU21D;52004;45.136;39.010;2022-07-29T03:53:08;22.93;67.18
65396;HTU21D;52004;45.136;39.010;2022-07-29T03:55:36;22.98;67.19
65396;HTU21D;52004;45.136;39.010;2022-07-29T03:58:03;23.08;67.17
65396;HTU21D;52004;45.136;39.010;2022-07-29T04:00:30;23.15;67.15
65396;HTU21D;52004;45.136;39.010;2022-07-29T04:02:56;23.26;67.11
65396;HTU21D;52004;45.136;39.010;2022-07-29T04:05:22;23.35;67.07
65396;HTU21D;52004;45.136;39.010;2022-07-29T04:07:48;23.43;67.02
65396;HTU21D;52004;45.136;39.010;2022-07-29T04:10:15;23.53;67.00
65396;HTU21D;52004;45.136;39.010;2022-07-29T04:12:41;0.00;66.96
65396;HTU21D;52004;45.136;39.010;2022-07-29T04:15:07;23.70;66.94
65396;HTU21D;52004;45.136;39.010;2022-07-29T04:17:34;23.79;66.94
65396;HTU21D;52004;45.136;39.010;2022-07-29T04:20:00;23.88;66.91
65396;HTU21D;52004;45.136;39.010;2022-07-29T04:22:26;23.97;66.86
65396;HTU21D;52004;45.136;39.010;2022-07-29T04:24:52;0.00;66.85
65396;HTU21D;52004;45.136;39.010;2022-07-29T04:27:18;24.15;66.81
65396;HTU21D;52004;45.136;39.010;2022-07-29T04:29:43;24.24;66.80
65396;HTU21D;52004;45.136;39.010;2022-07-29T04:32:09;0.00;66.76
65396;HTU21D;52004;45.136;39.010;2022-07-29T04:34:35;24.41;66.70
65396;HTU21D;52004;45.136;39.010;2022-07-29T04:37:01;24.48;66.69
65396;HTU21D;52004;45.136;39.010;2022-07-29T04:39:27;24.58;66.71
65396;HTU21D;52004;45.136;39.010;2022-07-29T04:41:53;24.65;66.70
65396;HTU21D;52004;45.136;39.010;2022-07-29T04:44:19;24.74;66.68
65396;HTU21D;52004;45.136;39.010;2022-07-29T04:46:45;24.85;66.69
65396;HTU21D;52004;45.136;39.010;2022-07-29T04:49:11;24.94;66.66
65396;HTU21D;52004;45.136;39.010;2022-07-29T04:51:37;25.04;66.64
65396;HTU21D;52004;45.136;39.010;2022-07-29T04:54:03;0.00;66.62
65396;HTU21D;52004;45.136;39.010;2022-07-29T04:56:30;0.00;66.61
65396;HTU21D;52004;45.136;39.010;2022-07-29T04:58:56;25.34;66.58
65396;HTU21D;52004;45.136;39.010;2022-07-29T05:01:22;25.43;66.54
65396;HTU21D;52004;45.136;39.010;2022-07-29T05:03:49;0.00;66.56
65396;HTU21D;52004;45.136;39.010;2022-07-29T05:06:15;25.61;66.51
65396;HTU21D;52004;45.136;39.010;2022-07-29T05:08:41;25.72;66.49
65396;HTU21D;52004;45.136;39.010;2022-07-29T05:11:08;25.82;66.48
65396;HTU21D;52004;45.136;39.010;2022-07-29T05:13:35;25.93;66.40
65396;HTU21D;52004;45.136;39.010;2022-07-29T05:16:01;26.01;66.38
65396;HTU21D;52004;45.136;39.010;2022-07-29T05:18:27;0.00;66.37
65396;HTU21D;52004;45.136;39.010;2022-07-29T05:20:53;26.21;66.36
65396;HTU21D;52004;45.136;39.010;2022-07-29T05:23:20;26.32;66.32
65396;HTU21D;52004;45.136;39.010;2022-07-29T05:25:46;26.42;66.29
65396;HTU21D;52004;45.136;39.010;2022-07-29T05:28:12;26.52;66.22
65396;HTU21D;52004;45.136;39.010;2022-07-29T05:30:38;26.61;66.14
65396;HTU21D;52004;45.136;39.010;2022-07-29T05:33:04;26.68;66.10
65396;HTU21D;52004;45.136;39.010;2022-07-29T05:35:30;26.76;66.09
65396;HTU21D;52004;45.136;39.010;2022-07-29T05:37:55;26.81;66.00
65396;HTU21D;52004;45.136;39.010;2022-07-29T05:40:21;26.87;65.95
65396;HTU21D;52004;45.136;39.010;2022-07-29T05:42:47;26.95;65.91
65396;HTU21D;52004;45.136;39.010;2022-07-29T05:45:13;0.00;65.91
65396;HTU21D;52004;45.136;39.010;2022-07-29T05:47:39;27.08;65.83
65396;HTU21D;52004;45.136;39.010;2022-07-29T05:50:05;27.15;65.75
65396;HTU21D;52004;45.136;39.010;2022-07-29T05:52:32;27.21;65.75
65396;HTU21D;52004;45.136;39.010;2022-07-29T05:54:58;27.27;65.72
65396;HTU21D;52004;45.136;39.010;2022-07-29T05:57:24;27.34;65.70
65396;HTU21D;52004;45.136;39.010;2022-07-29T05:59:50;27.43;65.72
65396;HTU21D;52004;45.136;39.010;2022-07-29T06:02:16;27.51;65.60
65396;HTU21D;52004;45.136;39.010;2022-07-29T06:04:42;27.57;65.58
65396;HTU21D;52004;45.136;39.010;2022-07-29T06:07:08;27.66;65.56
65396;HTU21D;52004;45.136;39.010;2022-07-29T06:09:35;0.00;65.44
65396;HTU21D;52004;45.136;39.010;2022-07-29T06:12:01;27.79;65.40
65396;HTU21D;52004;45.136;39.010;2022-07-29T06:14:27;27.84;65.33
65396;HTU21D;52004;45.136;39.010;2022-07-29T06:16:54;27.89;65.35
65396;HTU21D;52004;45.136;39.010;2022-07-29T06:19:20;27.99;65.41
65396;HTU21D;52004;45.136;39.010;2022-07-29T06:21:46;28.09;65.43
65396;HTU21D;52004;45.136;39.010;2022-07-29T06:24:12;28.20;65.34
65396;HTU21D;52004;45.136;39.010;2022-07-29T06:26:39;28.29;65.14
65396;HTU21D;52004;45.136;39.010;2022-07-29T06:29:08;28.37;65.11
65396;HTU21D;52004;45.136;39.010;2022-07-29T06:31:36;28.42;64.95
65396;HTU21D;52004;45.136;39.010;2022-07-29T06:34:02;28.50;64.85
65396;HTU21D;52004;45.136;39.010;2022-07-29T06:36:28;28.57;64.72
65396;HTU21D;52004;45.136;39.010;2022-07-29T06:38:54;28.63;64.79
65396;HTU21D;52004;45.136;39.010;2022-07-29T06:41:20;28.72;64.79
65396;HTU21D;52004;45.136;39.010;2022-07-29T06:43:46;28.83;64.80
65396;HTU21D;52004;45.136;39.010;2022-07-29T06:46:14;28.95;64.76
65396;HTU21D;52004;45.136;39.010;2022-07-29T06:48:40;29.06;64.63
65396;HTU21D;52004;45.136;39.010;2022-07-29T06:51:08;29.15;64.57
65396;HTU21D;52004;45.136;39.010;2022-07-29T06:53:34;29.24;64.40
65396;HTU21D;52004;45.136;39.010;2022-07-29T06:56:01;29.32;64.34
65396;HTU21D;52004;45.136;39.010;2022-07-29T06:58:28;29.38;64.34
65396;HTU21D;52004;45.136;39.010;2022-07-29T07:00:57;29.47;64.27
65396;HTU21D;52004;45.136;39.010;2022-07-29T07:03:23;29.56;64.16
65396;HTU21D;52004;45.136;39.010;2022-07-29T07:05:49;29.62;64.08
65396;HTU21D;52004;45.136;39.010;2022-07-29T07:08:15;29.68;63.92
65396;HTU21D;52004;45.136;39.010;2022-07-29T07:10:42;29.73;63.85
65396;HTU21D;52004;45.136;39.010;2022-07-29T07:13:08;29.77;63.84
65396;HTU21D;52004;45.136;39.010;2022-07-29T07:15:35;29.83;63.75
65396;HTU21D;52004;45.136;39.010;2022-07-29T07:18:01;29.90;63.80
65396;HTU21D;52004;45.136;39.010;2022-07-29T07:20:27;30.00;63.79
65396;HTU21D;52004;45.136;39.010;2022-07-29T07:22:53;30.09;63.68
65396;HTU21D;52004;45.136;39.010;2022-07-29T07:25:19;30.18;63.64
65396;HTU21D;52004;45.136;39.010;2022-07-29T07:27:45;30.27;63.44
65396;HTU21D;52004;45.136;39.010;2022-07-29T07:30:11;30.35;63.36
65396;HTU21D;52004;45.136;39.010;2022-07-29T07:32:37;30.42;63.34
65396;HTU21D;52004;45.136;39.010;2022-07-29T07:35:04;30.52;63.31
65396;HTU21D;52004;45.136;39.010;2022-07-29T07:37:31;0.00;63.12
65396;HTU21D;52004;45.136;39.010;2022-07-29T07:39:57;30.66;63.06
65396;HTU21D;52004;45.136;39.010;2022-07-29T07:42:23;30.74;63.05
65396;HTU21D;52004;45.136;39.010;2022-07-29T07:44:49;30.79;62.86
65396;HTU21D;52004;45.136;39.010;2022-07-29T07:47:15;30.84;62.68
65396;HTU21D;52004;45.136;39.010;2022-07-29T07:49:46;30.86;62.51
65396;HTU21D;52004;45.136;39.010;2022-07-29T07:52:12;30.87;62.63
65396;HTU21D;52004;45.136;39.010;2022-07-29T07:54:38;30.97;62.71
65396;HTU21D;52004;45.136;39.010;2022-07-29T07:57:04;31.06;62.73
65396;HTU21D;52004;45.136;39.010;2022-07-29T07:59:30;31.16;62.57
65396;HTU21D;52004;45.136;39.010;2022-07-29T08:01:56;31.27;62.52
65396;HTU21D;52004;45.136;39.010;2022-07-29T08:04:22;31.35;62.30
65396;HTU21D;52004;45.136;39.010;2022-07-29T08:06:48;31.41;62.30
65396;HTU21D;52004;45.136;39.010;2022-07-29T08:09:15;31.51;62.24
65396;HTU21D;52004;45.136;39.010;2022-07-29T08:11:41;0.00;62.02
65396;HTU21D;52004;45.136;39.010;2022-07-29T08:14:07;31.58;61.86
65396;HTU21D;52004;45.136;39.010;2022-07-29T08:16:33;31.65;61.96
65396;HTU21D;52004;45.136;39.010;2022-07-29T08:18:59;0.00;61.96
65396;HTU21D;52004;45.136;39.010;2022-07-29T08:21:25;31.80;61.96
65396;HTU21D;52004;45.136;39.010;2022-07-29T08:23:51;31.93;61.81
65396;HTU21D;52004;45.136;39.010;2022-07-29T08:26:41;0.00;61.63
65396;HTU21D;52004;45.136;39.010;2022-07-29T08:29:07;32.09;61.66
65396;HTU21D;52004;45.136;39.010;2022-07-29T08:31:33;32.20;61.47
65396;HTU21D;52004;45.136;39.010;2022-07-29T08:33:59;32.26;61.41
65396;HTU21D;52004;45.136;39.010;2022-07-29T08:36:25;32.35;61.33
65396;HTU21D;52004;45.136;39.010;2022-07-29T08:38:52;32.44;61.24
65396;HTU21D;52004;45.136;39.010;2022-07-29T08:41:18;32.49;61.01
65396;HTU21D;52004;45.136;39.010;2022-07-29T08:43:44;32.54;61.02
65396;HTU21D;52004;45.136;39.010;2022-07-29T08:46:10;32.59;61.07
65396;HTU21D;52004;45.136;39.010;2022-07-29T08:48:38;32.69;61.01
65396;HTU21D;52004;45.136;39.010;2022-07-29T08:51:04;32.73;60.68
65396;HTU21D;52004;45.136;39.010;2022-07-29T08:53:32;32.76;60.72
65396;HTU21D;52004;45.136;39.010;2022-07-29T08:55:58;32.81;60.74
65396;HTU21D;52004;45.136;39.010;2022-07-29T08:58:25;32.90;60.73
65396;HTU21D;52004;45.136;39.010;2022-07-29T09:00:53;33.01;60.54
65396;HTU21D;52004;45.136;39.010;2022-07-29T09:03:20;33.07;60.35
65396;HTU21D;52004;45.136;39.010;2022-07-29T09:05:46;33.13;60.30
65396;HTU21D;52004;45.136;39.010;2022-07-29T09:08:13;33.21;60.30
65396;HTU21D;52004;45.136;39.010;2022-07-29T09:10:39;33.30;60.01
65396;HTU21D;52004;45.136;39.010;2022-07-29T09:13:05;33.34;59.74
65396;HTU21D;52004;45.136;39.010;2022-07-29T09:15:31;0.00;59.54
65396;HTU21D;52004;45.136;39.010;2022-07-29T09:17:57;33.34;59.43
65396;HTU21D;52004;45.136;39.010;2022-07-29T09:20:27;33.35;59.49
65396;HTU21D;52004;45.136;39.010;2022-07-29T09:23:13;33.43;59.57
65396;HTU21D;52004;45.136;39.010;2022-07-29T09:25:40;33.52;59.43
65396;HTU21D;52004;45.136;39.010;2022-07-29T09:28:13;33.60;59.35
65396;HTU21D;52004;45.136;39.010;2022-07-29T09:30:56;33.65;59.09
65396;HTU21D;52004;45.136;39.010;2022-07-29T09:33:24;33.70;59.02
65396;HTU21D;52004;45.136;39.010;2022-07-29T09:35:59;33.74;58.99
65396;HTU21D;52004;45.136;39.010;2022-07-29T09:38:26;33.79;58.87
65396;HTU21D;52004;45.136;39.010;2022-07-29T09:40:58;33.86;58.90
65396;HTU21D;52004;45.136;39.010;2022-07-29T09:43:24;33.94;58.91
65396;HTU21D;52004;45.136;39.010;2022-07-29T09:45:50;34.04;58.77
65396;HTU21D;52004;45.136;39.010;2022-07-29T09:48:18;34.12;58.41
65396;HTU21D;52004;45.136;39.010;2022-07-29T09:50:44;34.11;58.16
65396;HTU21D;52004;45.136;39.010;2022-07-29T09:53:12;0.00;58.22
65396;HTU21D;52004;45.136;39.010;2022-07-29T09:55:54;34.12;58.16
65396;HTU21D;52004;45.136;39.010;2022-07-29T09:58:21;34.16;58.09
65396;HTU21D;52004;45.136;39.010;2022-07-29T10:00:49;34.20;58.09
65396;HTU21D;52004;45.136;39.010;2022-07-29T10:03:15;34.25;58.06
65396;HTU21D;52004;45.136;39.010;2022-07-29T10:05:41;34.33;57.83
65396;HTU21D;52004;45.136;39.010;2022-07-29T10:08:08;34.36;57.67
65396;HTU21D;52004;45.136;39.010;2022-07-29T10:10:36;34.36;57.52
65396;HTU21D;52004;45.136;39.010;2022-07-29T10:13:07;0.00;57.55
65396;HTU21D;52004;45.136;39.010;2022-07-29T10:15:39;34.39;57.20
65396;HTU21D;52004;45.136;39.010;2022-07-29T10:18:10;34.40;57.16
65396;HTU21D;52004;45.136;39.010;2022-07-29T10:20:37;34.40;57.05
65396;HTU21D;52004;45.136;39.010;2022-07-29T10:23:04;34.41;57.10
65396;HTU21D;52004;45.136;39.010;2022-07-29T10:25:30;34.42;57.04
65396;HTU21D;52004;45.136;39.010;2022-07-29T10:27:56;34.45;56.90
65396;HTU21D;52004;45.136;39.010;2022-07-29T10:30:23;34.47;56.87
65396;HTU21D;52004;45.136;39.010;2022-07-29T10:32:53;34.50;56.82
65396;HTU21D;52004;45.136;39.010;2022-07-29T10:43:17;34.59;56.43
65396;HTU21D;52004;45.136;39.010;2022-07-29T10:45:45;0.00;56.36
65396;HTU21D;52004;45.136;39.010;2022-07-29T10:48:12;34.60;56.25
65396;HTU21D;52004;45.136;39.010;2022-07-29T10:50:59;34.63;56.30
65396;HTU21D;52004;45.136;39.010;2022-07-29T10:56:29;34.71;56.14
65396;HTU21D;52004;45.136;39.010;2022-07-29T11:01:40;34.88;56.10
65396;HTU21D;52004;45.136;39.010;2022-07-29T11:04:06;34.94;56.09
65396;HTU21D;52004;45.136;39.010;2022-07-29T11:07:18;35.00;55.92
65396;HTU21D;52004;45.136;39.010;2022-07-29T11:09:19;35.00;55.89
65396;HTU21D;52004;45.136;39.010;2022-07-29T11:11:45;35.03;55.89
65396;HTU21D;52004;45.136;39.010;2022-07-29T11:14:12;35.09;55.90
65396;HTU21D;52004;45.136;39.010;2022-07-29T11:19:36;35.18;55.77
65396;HTU21D;52004;45.136;39.010;2022-07-29T11:22:04;35.25;55.75
65396;HTU21D;52004;45.136;39.010;2022-07-29T11:24:33;35.31;55.69
65396;HTU21D;52004;45.136;39.010;2022-07-29T11:27:16;35.38;55.59
65396;HTU21D;52004;45.136;39.010;2022-07-29T11:29:53;0.00;55.52
65396;HTU21D;52004;45.136;39.010;2022-07-29T11:32:21;35.51;55.49
65396;HTU21D;52004;45.136;39.010;2022-07-29T11:34:47;35.54;55.44
65396;HTU21D;52004;45.136;39.010;2022-07-29T11:37:14;35.59;55.33
65396;HTU21D;52004;45.136;39.010;2022-07-29T11:39:41;35.59;55.20
65396;HTU21D;52004;45.136;39.010;2022-07-29T11:45:05;35.54;55.21
65396;HTU21D;52004;45.136;39.010;2022-07-29T11:47:32;35.58;55.17
65396;HTU21D;52004;45.136;39.010;2022-07-29T11:49:58;35.60;55.16
65396;HTU21D;52004;45.136;39.010;2022-07-29T11:52:41;35.63;55.08
65396;HTU21D;52004;45.136;39.010;2022-07-29T11:55:14;35.63;54.93
65396;HTU21D;52004;45.136;39.010;2022-07-29T11:57:53;35.59;54.81
65396;HTU21D;52004;45.136;39.010;2022-07-29T12:00:20;35.50;54.75
65396;HTU21D;52004;45.136;39.010;2022-07-29T12:02:47;35.45;54.75
65396;HTU21D;52004;45.136;39.010;2022-07-29T12:05:13;35.42;54.77
65396;HTU21D;52004;45.136;39.010;2022-07-29T12:07:39;35.42;54.71
65396;HTU21D;52004;45.136;39.010;2022-07-29T12:10:06;35.36;54.55
65396;HTU21D;52004;45.136;39.010;2022-07-29T12:12:32;35.28;54.52
65396;HTU21D;52004;45.136;39.010;2022-07-29T12:15:10;35.22;54.66
65396;HTU21D;52004;45.136;39.010;2022-07-29T12:17:35;35.22;54.61
65396;HTU21D;52004;45.136;39.010;2022-07-29T12:20:03;35.20;54.59
65396;HTU21D;52004;45.136;39.010;2022-07-29T12:24:55;35.24;54.61
65396;HTU21D;52004;45.136;39.010;2022-07-29T12:27:26;35.29;54.56
65396;HTU21D;52004;45.136;39.010;2022-07-29T12:29:55;35.33;54.52
65396;HTU21D;52004;45.136;39.010;2022-07-29T12:32:22;35.37;54.54
65396;HTU21D;52004;45.136;39.010;2022-07-29T12:34:47;35.41;54.52
65396;HTU21D;52004;45.136;39.010;2022-07-29T12:37:13;35.48;54.49
65396;HTU21D;52004;45.136;39.010;2022-07-29T12:39:39;35.52;54.43
65396;HTU21D;52004;45.136;39.010;2022-07-29T12:42:12;35.56;54.41
65396;HTU21D;52004;45.136;39.010;2022-07-29T12:47:50;35.53;54.06
65396;HTU21D;52004;45.136;39.010;2022-07-29T12:50:16;35.45;54.07
65396;HTU21D;52004;45.136;39.010;2022-07-29T12:52:43;0.00;54.03
65396;HTU21D;52004;45.136;39.010;2022-07-29T12:55:09;35.30;54.07
65396;HTU21D;52004;45.136;39.010;2022-07-29T12:57:46;35.27;54.07
65396;HTU21D;52004;45.136;39.010;2022-07-29T13:00:13;35.24;53.95
65396;HTU21D;52004;45.136;39.010;2022-07-29T13:02:40;35.18;53.93
65396;HTU21D;52004;45.136;39.010;2022-07-29T13:05:07;35.15;54.00
65396;HTU21D;52004;45.136;39.010;2022-07-29T13:07:34;35.12;53.91
65396;HTU21D;52004;45.136;39.010;2022-07-29T13:10:36;35.03;53.87
65396;HTU21D;52004;45.136;39.010;2022-07-29T13:13:02;34.92;53.90
65396;HTU21D;52004;45.136;39.010;2022-07-29T13:15:29;34.88;54.04
65396;HTU21D;52004;45.136;39.010;2022-07-29T13:17:55;34.89;54.06
65396;HTU21D;52004;45.136;39.010;2022-07-29T13:20:23;34.90;54.01
65396;HTU21D;52004;45.136;39.010;2022-07-29T13:22:50;34.91;53.97
65396;HTU21D;52004;45.136;39.010;2022-07-29T13:25:23;0.00;53.84
65396;HTU21D;52004;45.136;39.010;2022-07-29T13:27:49;34.82;53.85
65396;HTU21D;52004;45.136;39.010;2022-07-29T13:30:15;34.80;53.86
65396;HTU21D;52004;45.136;39.010;2022-07-29T13:32:41;34.80;53.84
65396;HTU21D;52004;45.136;39.010;2022-07-29T13:35:07;34.78;53.78
65396;HTU21D;52004;45.136;39.010;2022-07-29T13:37:34;34.77;53.75
65396;HTU21D;52004;45.136;39.010;2022-07-29T13:40:04;0.00;53.72
65396;HTU21D;52004;45.136;39.010;2022-07-29T13:42:31;34.78;53.75
65396;HTU21D;52004;45.136;39.010;2022-07-29T13:44:57;34.80;53.73
65396;HTU21D;52004;45.136;39.010;2022-07-29T13:47:23;34.80;53.68
65396;HTU21D;52004;45.136;39.010;2022-07-29T13:49:49;34.79;53.64
65396;HTU21D;52004;45.136;39.010;2022-07-29T13:52:15;34.80;53.64
65396;HTU21D;52004;45.136;39.010;2022-07-29T13:54:41;34.82;53.59
65396;HTU21D;52004;45.136;39.010;2022-07-29T13:57:08;34.85;53.49
65396;HTU21D;52004;45.136;39.010;2022-07-29T13:59:36;34.82;53.47
65396;HTU21D;52004;45.136;39.010;2022-07-29T14:02:02;34.83;53.44
65396;HTU21D;52004;45.136;39.010;2022-07-29T14:04:28;34.82;53.38
65396;HTU21D;52004;45.136;39.010;2022-07-29T14:06:54;34.78;53.31
65396;HTU21D;52004;45.136;39.010;2022-07-29T14:09:20;34.77;53.31
65396;HTU21D;52004;45.136;39.010;2022-07-29T14:11:46;34.75;53.32
65396;HTU21D;52004;45.136;39.010;2022-07-29T14:14:15;34.73;53.27
65396;HTU21D;52004;45.136;39.010;2022-07-29T14:16:41;34.67;53.21
65396;HTU21D;52004;45.136;39.010;2022-07-29T14:19:07;34.62;53.23
65396;HTU21D;52004;45.136;39.010;2022-07-29T14:21:33;34.60;53.22
65396;HTU21D;52004;45.136;39.010;2022-07-29T14:24:00;34.55;53.20
65396;HTU21D;52004;45.136;39.010;2022-07-29T14:26:26;34.51;53.17
65396;HTU21D;52004;45.136;39.010;2022-07-29T14:28:52;34.49;53.21
65396;HTU21D;52004;45.136;39.010;2022-07-29T14:31:18;0.00;53.17
65396;HTU21D;52004;45.136;39.010;2022-07-29T14:33:44;34.42;53.16
65396;HTU21D;52004;45.136;39.010;2022-07-29T14:36:10;0.00;53.11
65396;HTU21D;52004;45.136;39.010;2022-07-29T14:38:36;34.32;53.10
65396;HTU21D;52004;45.136;39.010;2022-07-29T14:41:03;34.27;53.13
65396;HTU21D;52004;45.136;39.010;2022-07-29T14:43:29;34.22;53.09
65396;HTU21D;52004;45.136;39.010;2022-07-29T14:45:55;34.20;53.11
65396;HTU21D;52004;45.136;39.010;2022-07-29T14:48:26;34.16;53.01
65396;HTU21D;52004;45.136;39.010;2022-07-29T14:50:52;34.10;53.07
65396;HTU21D;52004;45.136;39.010;2022-07-29T14:53:18;34.07;53.01
65396;HTU21D;52004;45.136;39.010;2022-07-29T14:55:44;34.01;53.01
65396;HTU21D;52004;45.136;39.010;2022-07-29T14:58:10;33.96;53.04
65396;HTU21D;52004;45.136;39.010;2022-07-29T15:00:36;33.91;53.01
65396;HTU21D;52004;45.136;39.010;2022-07-29T15:03:03;33.87;53.07
65396;HTU21D;52004;45.136;39.010;2022-07-29T15:05:31;33.82;53.03
65396;HTU21D;52004;45.136;39.010;2022-07-29T15:07:57;0.00;53.04
65396;HTU21D;52004;45.136;39.010;2022-07-29T15:10:23;33.68;53.05
65396;HTU21D;52004;45.136;39.010;2022-07-29T15:12:48;33.61;53.08
65396;HTU21D;52004;45.136;39.010;2022-07-29T15:15:14;33.56;53.06
65396;HTU21D;52004;45.136;39.010;2022-07-29T15:17:40;33.49;53.10
65396;HTU21D;52004;45.136;39.010;2022-07-29T15:20:09;33.43;53.12
65396;HTU21D;52004;45.136;39.010;2022-07-29T15:22:35;33.37;53.14
65396;HTU21D;52004;45.136;39.010;2022-07-29T15:25:02;33.31;53.19
65396;HTU21D;52004;45.136;39.010;2022-07-29T15:27:28;0.00;53.16
65396;HTU21D;52004;45.136;39.010;2022-07-29T15:29:54;33.19;53.20
65396;HTU21D;52004;45.136;39.010;2022-07-29T15:32:20;33.16;53.21
65396;HTU21D;52004;45.136;39.010;2022-07-29T15:34:46;0.00;53.18
65396;HTU21D;52004;45.136;39.010;2022-07-29T15:37:12;33.05;53.23
65396;HTU21D;52004;45.136;39.010;2022-07-29T15:39:40;33.01;53.22
65396;HTU21D;52004;45.136;39.010;2022-07-29T15:42:06;0.00;53.22
65396;HTU21D;52004;45.136;39.010;2022-07-29T15:44:34;32.90;53.25